createdAt,value
2017-09-04T00:00:25.363Z,10.95
2017-09-04T00:01:25.439Z,10.95
2017-09-04T00:02:25.979Z,10.95
2017-09-04T00:03:25.256Z,10.95
2017-09-04T00:04:25.756Z,10.95
2017-09-04T00:05:25.526Z,10.96
2017-09-04T00:06:25.763Z,10.98
2017-09-04T00:07:25.802Z,10.94
2017-09-04T00:08:25.920Z,10.96
2017-09-04T00:09:25.946Z,10.91
2017-09-04T00:10:26.456Z,10.92
2017-09-04T00:11:25.701Z,10.80
2017-09-04T00:12:25.992Z,10.89
2017-09-04T00:13:26.059Z,10.80
2017-09-04T00:14:25.835Z,10.77
2017-09-04T00:15:25.797Z,10.76
2017-09-04T00:16:26.137Z,10.83
2017-09-04T00:17:26.036Z,10.66
2017-09-04T00:18:26.267Z,10.81
2017-09-04T00:19:26.199Z,10.68
2017-09-04T00:20:26.055Z,10.68
2017-09-04T00:21:26.223Z,10.71
2017-09-04T00:22:26.215Z,10.51
2017-09-04T00:23:26.770Z,10.63
2017-09-04T00:24:26.398Z,10.63
2017-09-04T00:25:26.428Z,10.52
2017-09-04T00:26:26.713Z,10.56
2017-09-04T00:27:26.442Z,10.51
2017-09-04T00:28:26.724Z,10.46
2017-09-04T00:29:26.577Z,10.53
2017-09-04T00:30:26.647Z,10.52
2017-09-04T00:31:26.990Z,10.47
2017-09-04T00:32:26.629Z,10.36
2017-09-04T00:33:27.126Z,10.43
2017-09-04T00:34:27.120Z,10.43
2017-09-04T00:35:26.898Z,10.33
2017-09-04T00:36:27.257Z,10.40
2017-09-04T00:37:26.956Z,10.40
2017-09-04T00:38:26.997Z,10.36
2017-09-04T00:39:27.658Z,10.37
2017-09-04T00:40:27.283Z,10.39
2017-09-04T00:41:27.521Z,10.37
2017-09-04T00:42:27.540Z,10.37
2017-09-04T00:43:27.439Z,10.39
2017-09-04T00:44:27.718Z,10.36
2017-09-04T00:45:27.367Z,10.42
2017-09-04T00:46:27.747Z,10.39
2017-09-04T00:47:27.441Z,10.39
2017-09-04T00:48:27.703Z,10.42
2017-09-04T00:49:27.866Z,10.52
2017-09-04T00:50:27.983Z,10.44
2017-09-04T00:51:27.632Z,10.51
2017-09-04T00:52:28.095Z,10.43
2017-09-04T00:53:27.722Z,10.52
2017-09-04T00:54:28.079Z,10.55
2017-09-04T00:55:27.739Z,10.55
2017-09-04T00:56:27.989Z,10.60
2017-09-04T00:57:27.906Z,10.51
2017-09-04T00:58:27.915Z,10.62
2017-09-04T00:59:28.647Z,10.58
2017-09-04T01:00:28.443Z,10.46
2017-09-04T01:01:28.396Z,10.59
2017-09-04T01:02:28.206Z,10.63
2017-09-04T01:03:28.303Z,10.60
2017-09-04T01:04:28.434Z,10.70
2017-09-04T01:05:28.722Z,10.63
2017-09-04T01:06:28.516Z,10.76
2017-09-04T01:07:28.335Z,10.66
2017-09-04T01:08:28.697Z,10.70
2017-09-04T01:09:28.574Z,10.62
2017-09-04T01:10:29.062Z,10.73
2017-09-04T01:11:28.558Z,10.60
2017-09-04T01:12:29.029Z,10.62
2017-09-04T01:13:28.681Z,10.63
2017-09-04T01:14:28.894Z,10.44
2017-09-04T01:15:29.178Z,10.55
2017-09-04T01:16:28.889Z,10.63
2017-09-04T01:17:28.972Z,10.53
2017-09-04T01:18:29.133Z,10.59
2017-09-04T01:19:29.134Z,10.66
2017-09-04T01:20:29.243Z,10.62
2017-09-04T01:21:29.057Z,10.60
2017-09-04T01:22:29.210Z,10.55
2017-09-04T01:23:29.367Z,10.59
2017-09-04T01:24:29.234Z,10.53
2017-09-04T01:25:29.232Z,10.62
2017-09-04T01:26:29.559Z,10.62
2017-09-04T01:27:29.587Z,10.51
2017-09-04T01:28:29.581Z,10.59
2017-09-04T01:29:29.378Z,10.53
2017-09-04T01:30:29.551Z,10.52
2017-09-04T01:31:29.603Z,10.47
2017-09-04T01:32:29.618Z,10.44
2017-09-04T01:33:29.667Z,10.53
2017-09-04T01:34:29.930Z,10.42
2017-09-04T01:35:29.873Z,10.52
2017-09-04T01:36:30.132Z,10.42
2017-09-04T01:37:29.926Z,10.34
2017-09-04T01:38:29.894Z,10.39
2017-09-04T01:39:29.784Z,10.40
2017-09-04T01:40:29.957Z,10.32
2017-09-04T01:41:30.200Z,10.30
2017-09-04T01:42:30.082Z,10.28
2017-09-04T01:43:30.626Z,10.25
2017-09-04T01:44:30.690Z,10.25
2017-09-04T01:45:30.614Z,10.25
2017-09-04T01:46:30.475Z,10.26
2017-09-04T01:47:30.319Z,10.26
2017-09-04T01:48:30.504Z,10.39
2017-09-04T01:49:30.651Z,10.43
2017-09-04T01:50:30.671Z,10.39
2017-09-04T01:51:30.662Z,10.42
2017-09-04T01:52:30.700Z,10.52
2017-09-04T01:53:30.998Z,10.63
2017-09-04T01:54:30.919Z,10.52
2017-09-04T01:55:30.771Z,10.59
2017-09-04T01:56:30.706Z,10.62
2017-09-04T01:57:31.048Z,10.60
2017-09-04T01:58:30.838Z,10.60
2017-09-04T01:59:30.914Z,10.58
2017-09-04T02:00:31.207Z,10.56
2017-09-04T02:01:31.346Z,10.55
2017-09-04T02:02:31.498Z,10.60
2017-09-04T02:03:31.242Z,10.52
2017-09-04T02:04:31.072Z,10.60
2017-09-04T02:05:31.152Z,10.52
2017-09-04T02:06:31.156Z,10.51
2017-09-04T02:07:31.431Z,10.52
2017-09-04T02:08:31.382Z,10.46
2017-09-04T02:09:31.619Z,10.53
2017-09-04T02:10:31.400Z,10.53
2017-09-04T02:11:31.386Z,10.59
2017-09-04T02:12:31.838Z,10.58
2017-09-04T02:13:31.616Z,10.62
2017-09-04T02:14:31.554Z,10.59
2017-09-04T02:15:31.644Z,10.62
2017-09-04T02:16:31.864Z,10.60
2017-09-04T02:17:31.805Z,10.51
2017-09-04T02:18:32.040Z,10.62
2017-09-04T02:19:31.850Z,10.55
2017-09-04T02:20:32.082Z,10.55
2017-09-04T02:21:31.855Z,10.51
2017-09-04T02:22:32.056Z,10.43
2017-09-04T02:23:32.144Z,10.46
2017-09-04T02:24:32.061Z,10.53
2017-09-04T02:25:32.039Z,10.43
2017-09-04T02:26:32.101Z,10.44
2017-09-04T02:27:32.221Z,10.44
2017-09-04T02:28:32.806Z,10.36
2017-09-04T02:29:32.479Z,10.40
2017-09-04T02:30:32.478Z,10.42
2017-09-04T02:31:32.463Z,10.42
2017-09-04T02:32:32.462Z,10.40
2017-09-04T02:33:32.852Z,10.40
2017-09-04T02:34:32.665Z,10.34
2017-09-04T02:35:32.964Z,10.42
2017-09-04T02:36:32.549Z,10.36
2017-09-04T02:37:32.892Z,10.39
2017-09-04T02:38:33.246Z,10.39
2017-09-04T02:39:33.030Z,10.42
2017-09-04T02:40:32.796Z,10.36
2017-09-04T02:41:33.042Z,10.42
2017-09-04T02:42:32.880Z,10.36
2017-09-04T02:43:32.975Z,10.43
2017-09-04T02:44:33.276Z,10.40
2017-09-04T02:45:33.369Z,10.42
2017-09-04T02:46:33.255Z,10.44
2017-09-04T02:47:33.717Z,10.42
2017-09-04T02:48:33.215Z,10.47
2017-09-04T02:49:33.662Z,10.47
2017-09-04T02:50:33.679Z,10.46
2017-09-04T02:51:33.613Z,10.47
2017-09-04T02:52:33.800Z,10.44
2017-09-04T02:53:33.762Z,10.51
2017-09-04T02:54:33.822Z,10.46
2017-09-04T02:55:33.677Z,10.52
2017-09-04T02:56:33.698Z,10.56
2017-09-04T02:57:33.918Z,10.55
2017-09-04T02:58:33.652Z,10.53
2017-09-04T02:59:34.346Z,10.55
2017-09-04T03:00:34.058Z,10.52
2017-09-04T03:01:33.848Z,10.47
2017-09-04T03:02:33.825Z,10.43
2017-09-04T03:03:33.932Z,10.53
2017-09-04T03:04:34.090Z,10.55
2017-09-04T03:05:34.341Z,10.40
2017-09-04T03:06:34.220Z,10.51
2017-09-04T03:07:34.107Z,10.36
2017-09-04T03:08:34.085Z,10.34
2017-09-04T03:09:34.393Z,10.40
2017-09-04T03:10:34.722Z,10.39
2017-09-04T03:11:34.270Z,10.40
2017-09-04T03:12:34.462Z,10.36
2017-09-04T03:13:34.651Z,10.33
2017-09-04T03:14:34.751Z,10.34
2017-09-04T03:15:34.934Z,10.25
2017-09-04T03:16:34.486Z,10.28
2017-09-04T03:17:34.549Z,10.32
2017-09-04T03:18:34.638Z,10.28
2017-09-04T03:19:35.078Z,10.28
2017-09-04T03:20:35.234Z,10.30
2017-09-04T03:21:34.888Z,10.15
2017-09-04T03:22:34.979Z,10.24
2017-09-04T03:23:35.256Z,10.19
2017-09-04T03:24:34.854Z,10.15
2017-09-04T03:25:35.330Z,10.07
2017-09-04T03:26:34.976Z,10.04
2017-09-04T03:27:35.388Z,10.04
2017-09-04T03:28:35.435Z,9.97
2017-09-04T03:29:35.261Z,9.97
2017-09-04T03:30:35.614Z,9.94
2017-09-04T03:31:35.278Z,9.93
2017-09-04T03:32:35.688Z,9.99
2017-09-04T03:33:35.695Z,9.91
2017-09-04T03:34:36.126Z,9.89
2017-09-04T03:35:35.861Z,9.88
2017-09-04T03:36:35.590Z,9.91
2017-09-04T03:37:36.290Z,9.91
2017-09-04T03:38:36.337Z,9.86
2017-09-04T03:39:35.874Z,9.88
2017-09-04T03:40:36.220Z,9.82
2017-09-04T03:41:36.354Z,9.85
2017-09-04T03:42:36.156Z,9.83
2017-09-04T03:43:35.938Z,9.85
2017-09-04T03:44:36.037Z,9.85
2017-09-04T03:45:36.166Z,9.82
2017-09-04T03:46:36.026Z,9.89
2017-09-04T03:47:36.500Z,9.86
2017-09-04T03:48:35.995Z,9.82
2017-09-04T03:49:36.095Z,9.83
2017-09-04T03:50:36.406Z,9.91
2017-09-04T03:51:36.187Z,9.86
2017-09-04T03:52:36.544Z,9.93
2017-09-04T03:53:36.879Z,9.96
2017-09-04T03:54:36.740Z,9.94
2017-09-04T03:55:36.328Z,9.97
2017-09-04T03:56:36.481Z,9.93
2017-09-04T03:57:37.197Z,9.97
2017-09-04T03:58:36.706Z,10.00
2017-09-04T03:59:37.022Z,9.94
2017-09-04T04:00:36.706Z,10.03
2017-09-04T04:01:36.946Z,10.00
2017-09-04T04:02:37.262Z,10.00
2017-09-04T04:03:36.972Z,9.94
2017-09-04T04:04:37.175Z,9.91
2017-09-04T04:05:36.792Z,9.85
2017-09-04T04:06:36.865Z,9.83
2017-09-04T04:07:37.426Z,9.83
2017-09-04T04:08:37.009Z,9.89
2017-09-04T04:09:37.253Z,9.76
2017-09-04T04:10:37.101Z,9.88
2017-09-04T04:11:37.309Z,9.91
2017-09-04T04:12:37.427Z,9.91
2017-09-04T04:13:37.413Z,9.85
2017-09-04T04:14:37.353Z,9.88
2017-09-04T04:15:37.479Z,9.88
2017-09-04T04:16:37.505Z,9.79
2017-09-04T04:17:37.504Z,9.86
2017-09-04T04:18:37.849Z,9.86
2017-09-04T04:19:37.405Z,9.83
2017-09-04T04:20:37.579Z,9.82
2017-09-04T04:21:37.866Z,9.79
2017-09-04T04:22:37.807Z,9.76
2017-09-04T04:23:38.046Z,9.71
2017-09-04T04:24:37.839Z,9.75
2017-09-04T04:25:37.983Z,9.78
2017-09-04T04:26:37.799Z,9.76
2017-09-04T04:27:37.890Z,9.71
2017-09-04T04:28:37.969Z,9.75
2017-09-04T04:29:38.493Z,9.70
2017-09-04T04:30:38.335Z,9.66
2017-09-04T04:31:38.153Z,9.60
2017-09-04T04:32:38.581Z,9.58
2017-09-04T04:33:38.477Z,9.68
2017-09-04T04:34:38.557Z,9.64
2017-09-04T04:35:38.233Z,9.58
2017-09-04T04:36:38.483Z,9.58
2017-09-04T04:37:38.361Z,9.56
2017-09-04T04:38:38.560Z,9.56
2017-09-04T04:39:38.651Z,9.61
2017-09-04T04:40:38.833Z,9.58
2017-09-04T04:41:38.598Z,9.58
2017-09-04T04:42:39.367Z,9.58
2017-09-04T04:43:38.838Z,9.58
2017-09-04T04:44:39.088Z,9.60
2017-09-04T04:45:39.017Z,9.64
2017-09-04T04:46:38.926Z,9.70
2017-09-04T04:47:38.840Z,9.61
2017-09-04T04:48:38.913Z,9.68
2017-09-04T04:49:39.361Z,9.79
2017-09-04T04:50:39.595Z,9.78
2017-09-04T04:51:39.238Z,9.78
2017-09-04T04:52:39.077Z,9.79
2017-09-04T04:53:39.160Z,9.76
2017-09-04T04:54:39.513Z,9.85
2017-09-04T04:55:39.585Z,9.85
2017-09-04T04:56:39.536Z,9.81
2017-09-04T04:57:39.453Z,9.86
2017-09-04T04:58:39.955Z,9.82
2017-09-04T04:59:39.710Z,9.89
2017-09-04T05:00:39.963Z,9.94
2017-09-04T05:01:39.724Z,9.83
2017-09-04T05:02:39.571Z,9.78
2017-09-04T05:03:39.599Z,9.86
2017-09-04T05:04:39.677Z,9.85
2017-09-04T05:05:39.830Z,9.88
2017-09-04T05:06:39.745Z,9.97
2017-09-04T05:07:39.933Z,9.93
2017-09-04T05:08:39.978Z,9.93
2017-09-04T05:09:39.941Z,9.96
2017-09-04T05:10:40.234Z,9.88
2017-09-04T05:11:40.313Z,9.97
2017-09-04T05:12:40.170Z,9.93
2017-09-04T05:13:40.034Z,9.97
2017-09-04T05:14:40.212Z,10.06
2017-09-04T05:15:40.545Z,9.97
2017-09-04T05:16:40.536Z,10.03
2017-09-04T05:17:40.328Z,10.07
2017-09-04T05:18:40.521Z,10.09
2017-09-04T05:19:40.595Z,10.18
2017-09-04T05:20:41.098Z,10.17
2017-09-04T05:21:40.800Z,10.22
2017-09-04T05:22:40.887Z,10.25
2017-09-04T05:23:40.641Z,10.25
2017-09-04T05:24:41.136Z,10.24
2017-09-04T05:25:40.852Z,10.34
2017-09-04T05:26:41.305Z,10.37
2017-09-04T05:27:40.774Z,10.43
2017-09-04T05:28:41.101Z,10.51
2017-09-04T05:29:41.060Z,10.47
2017-09-04T05:30:40.951Z,10.51
2017-09-04T05:31:41.338Z,10.58
2017-09-04T05:32:40.982Z,10.59
2017-09-04T05:33:41.026Z,10.55
2017-09-04T05:34:41.327Z,10.65
2017-09-04T05:35:41.071Z,10.56
2017-09-04T05:36:41.809Z,10.63
2017-09-04T05:37:41.257Z,10.62
2017-09-04T05:38:41.304Z,10.55
2017-09-04T05:39:41.421Z,10.56
2017-09-04T05:40:41.713Z,10.68
2017-09-04T05:41:41.877Z,10.66
2017-09-04T05:42:41.521Z,10.65
2017-09-04T05:43:41.828Z,10.66
2017-09-04T05:44:41.531Z,10.78
2017-09-04T05:45:41.631Z,10.73
2017-09-04T05:46:41.767Z,10.73
2017-09-04T05:47:41.743Z,10.86
2017-09-04T05:48:41.850Z,10.89
2017-09-04T05:49:41.878Z,10.88
2017-09-04T05:50:42.009Z,10.95
2017-09-04T05:51:42.093Z,11.11
2017-09-04T05:52:41.945Z,11.07
2017-09-04T05:53:42.087Z,11.16
2017-09-04T05:54:42.213Z,11.27
2017-09-04T05:55:42.771Z,11.21
2017-09-04T05:56:42.202Z,11.29
2017-09-04T05:57:43.140Z,11.28
2017-09-04T05:58:42.200Z,11.34
2017-09-04T05:59:42.920Z,11.36
2017-09-04T06:00:42.375Z,11.41
2017-09-04T06:01:42.500Z,11.50
2017-09-04T06:02:42.957Z,11.50
2017-09-04T06:03:42.663Z,11.56
2017-09-04T06:04:42.918Z,11.61
2017-09-04T06:05:43.031Z,11.74
2017-09-04T06:06:42.728Z,11.85
2017-09-04T06:07:43.028Z,11.93
2017-09-04T06:08:42.677Z,12.01
2017-09-04T06:09:43.053Z,12.12
2017-09-04T06:10:42.964Z,12.27
2017-09-04T06:11:43.015Z,12.39
2017-09-04T06:12:43.642Z,12.38
2017-09-04T06:13:42.939Z,12.49
2017-09-04T06:14:43.459Z,12.56
2017-09-04T06:15:43.119Z,12.60
2017-09-04T06:16:43.308Z,12.66
2017-09-04T06:17:43.583Z,12.81
2017-09-04T06:18:43.362Z,12.96
2017-09-04T06:19:43.424Z,12.87
2017-09-04T06:20:43.536Z,12.96
2017-09-04T06:21:43.776Z,12.93
2017-09-04T06:22:43.383Z,12.97
2017-09-04T06:23:43.743Z,12.99
2017-09-04T06:24:43.441Z,13.06
2017-09-04T06:25:43.830Z,12.99
2017-09-04T06:26:43.926Z,13.11
2017-09-04T06:27:43.604Z,13.04
2017-09-04T06:28:44.012Z,13.09
2017-09-04T06:29:43.774Z,13.09
2017-09-04T06:30:43.918Z,13.17
2017-09-04T06:31:44.233Z,13.24
2017-09-04T06:32:44.003Z,13.33
2017-09-04T06:33:44.006Z,13.33
2017-09-04T06:34:43.979Z,13.37
2017-09-04T06:35:44.260Z,13.37
2017-09-04T06:36:44.017Z,13.43
2017-09-04T06:37:44.339Z,13.41
2017-09-04T06:38:44.471Z,13.44
2017-09-04T06:39:44.509Z,13.56
2017-09-04T06:40:44.327Z,13.55
2017-09-04T06:41:44.368Z,13.59
2017-09-04T06:42:44.346Z,13.73
2017-09-04T06:43:44.524Z,13.76
2017-09-04T06:44:44.518Z,14.17
2017-09-04T06:45:44.700Z,14.69
2017-09-04T06:46:44.659Z,15.46
2017-09-04T06:47:45.002Z,16.00
2017-09-04T06:48:44.741Z,16.65
2017-09-04T06:49:44.851Z,16.81
2017-09-04T06:50:44.690Z,16.78
2017-09-04T06:51:45.037Z,17.11
2017-09-04T06:52:45.454Z,17.67
2017-09-04T06:53:44.989Z,17.99
2017-09-04T06:54:45.939Z,17.87
2017-09-04T06:55:44.965Z,18.18
2017-09-04T06:56:45.039Z,18.68
2017-09-04T06:57:45.223Z,18.79
2017-09-04T06:58:45.276Z,18.98
2017-09-04T06:59:45.771Z,19.01
2017-09-04T07:00:45.526Z,19.35
2017-09-04T07:01:45.450Z,19.60
2017-09-04T07:02:45.929Z,19.43
2017-09-04T07:03:45.427Z,19.70
2017-09-04T07:04:45.860Z,20.23
2017-09-04T07:05:45.527Z,20.50
2017-09-04T07:06:45.524Z,20.80
2017-09-04T07:07:45.983Z,20.02
2017-09-04T07:08:45.722Z,19.68
2017-09-04T07:09:46.179Z,19.78
2017-09-04T07:10:45.856Z,19.83
2017-09-04T07:11:45.817Z,19.72
2017-09-04T07:12:45.825Z,20.21
2017-09-04T07:13:46.469Z,19.94
2017-09-04T07:14:46.374Z,19.84
2017-09-04T07:15:46.032Z,20.42
2017-09-04T07:16:46.203Z,20.83
2017-09-04T07:17:46.511Z,20.86
2017-09-04T07:18:46.407Z,21.20
2017-09-04T07:19:46.262Z,21.78
2017-09-04T07:20:46.698Z,21.83
2017-09-04T07:21:46.283Z,21.94
2017-09-04T07:22:46.346Z,21.66
2017-09-04T07:23:46.352Z,21.75
2017-09-04T07:24:46.452Z,22.13
2017-09-04T07:25:47.023Z,21.60
2017-09-04T07:26:46.977Z,21.60
2017-09-04T07:27:46.612Z,22.29
2017-09-04T07:28:46.746Z,22.44
2017-09-04T07:29:46.711Z,22.28
2017-09-04T07:30:47.335Z,21.61
2017-09-04T07:31:46.793Z,20.77
2017-09-04T07:32:46.911Z,20.24
2017-09-04T07:33:46.893Z,20.68
2017-09-04T07:34:47.049Z,21.13
2017-09-04T07:35:47.529Z,21.81
2017-09-04T07:36:47.207Z,22.54
2017-09-04T07:37:47.238Z,22.68
2017-09-04T07:38:47.155Z,23.05
2017-09-04T07:39:47.280Z,23.45
2017-09-04T07:40:47.733Z,23.20
2017-09-04T07:41:47.826Z,23.14
2017-09-04T07:42:47.372Z,23.02
2017-09-04T07:43:47.551Z,22.87
2017-09-04T07:44:47.743Z,22.68
2017-09-04T07:45:47.559Z,22.53
2017-09-04T07:46:47.772Z,21.42
2017-09-04T07:47:47.715Z,20.49
2017-09-04T07:48:47.977Z,19.66
2017-09-04T07:49:47.830Z,19.50
2017-09-04T07:50:47.802Z,19.60
2017-09-04T07:51:48.256Z,19.57
2017-09-04T07:52:48.072Z,19.29
2017-09-04T07:53:48.373Z,19.40
2017-09-04T07:54:48.059Z,19.18
2017-09-04T07:55:48.204Z,19.08
2017-09-04T07:56:48.595Z,18.86
2017-09-04T07:57:48.363Z,18.62
2017-09-04T07:58:48.433Z,18.84
2017-09-04T07:59:48.379Z,18.79
2017-09-04T08:00:48.518Z,18.64
2017-09-04T08:01:48.766Z,18.47
2017-09-04T08:02:48.696Z,17.76
2017-09-04T08:03:48.530Z,17.76
2017-09-04T08:04:48.719Z,18.06
2017-09-04T08:05:49.031Z,18.04
2017-09-04T08:06:49.059Z,17.87
2017-09-04T08:07:49.439Z,17.85
2017-09-04T08:08:48.757Z,17.71
2017-09-04T08:09:49.010Z,17.62
2017-09-04T08:10:49.003Z,17.29
2017-09-04T08:11:49.302Z,17.70
2017-09-04T08:12:49.287Z,18.80
2017-09-04T08:13:49.375Z,19.31
2017-09-04T08:14:49.145Z,19.97
2017-09-04T08:15:49.622Z,20.21
2017-09-04T08:16:49.400Z,19.88
2017-09-04T08:17:49.744Z,19.53
2017-09-04T08:18:49.333Z,18.65
2017-09-04T08:19:49.744Z,18.62
2017-09-04T08:20:49.815Z,19.46
2017-09-04T08:21:49.476Z,19.72
2017-09-04T08:22:49.780Z,19.97
2017-09-04T08:23:49.699Z,20.25
2017-09-04T08:24:49.624Z,20.42
2017-09-04T08:25:49.813Z,20.54
2017-09-04T08:26:49.775Z,20.08
2017-09-04T08:27:50.285Z,19.93
2017-09-04T08:28:49.865Z,20.59
2017-09-04T08:29:49.957Z,20.91
2017-09-04T08:30:50.467Z,21.24
2017-09-04T08:31:50.251Z,21.50
2017-09-04T08:32:50.451Z,21.45
2017-09-04T08:33:50.301Z,20.87
2017-09-04T08:34:50.152Z,20.74
2017-09-04T08:35:50.559Z,20.59
2017-09-04T08:36:50.592Z,20.62
2017-09-04T08:37:51.144Z,21.08
2017-09-04T08:38:50.605Z,21.39
2017-09-04T08:39:51.060Z,21.60
2017-09-04T08:40:50.616Z,21.30
2017-09-04T08:41:50.686Z,20.35
2017-09-04T08:42:50.881Z,20.42
2017-09-04T08:43:51.028Z,20.71
2017-09-04T08:44:50.923Z,21.24
2017-09-04T08:45:50.691Z,21.78
2017-09-04T08:46:50.856Z,21.11
2017-09-04T08:47:50.840Z,20.46
2017-09-04T08:48:51.133Z,20.81
2017-09-04T08:49:51.052Z,20.50
2017-09-04T08:50:51.024Z,20.18
2017-09-04T08:51:51.012Z,19.98
2017-09-04T08:52:51.258Z,19.33
2017-09-04T08:53:51.790Z,19.29
2017-09-04T08:54:51.242Z,19.80
2017-09-04T08:55:51.288Z,20.31
2017-09-04T08:56:51.526Z,20.99
2017-09-04T08:57:51.466Z,21.48
2017-09-04T08:58:51.619Z,21.23
2017-09-04T08:59:51.985Z,21.36
2017-09-04T09:00:51.630Z,21.05
2017-09-04T09:01:52.262Z,21.36
2017-09-04T09:02:51.720Z,21.59
2017-09-04T09:03:52.079Z,20.31
2017-09-04T09:04:52.011Z,19.84
2017-09-04T09:05:51.880Z,20.34
2017-09-04T09:06:51.821Z,20.77
2017-09-04T09:07:52.124Z,21.36
2017-09-04T09:08:52.126Z,20.56
2017-09-04T09:09:52.225Z,20.69
2017-09-04T09:10:52.194Z,20.80
2017-09-04T09:11:52.376Z,21.08
2017-09-04T09:12:52.403Z,20.56
2017-09-04T09:13:52.522Z,20.12
2017-09-04T09:14:52.711Z,19.33
2017-09-04T09:15:52.568Z,19.80
2017-09-04T09:16:52.590Z,20.56
2017-09-04T09:17:52.474Z,21.11
2017-09-04T09:18:52.709Z,20.23
2017-09-04T09:19:52.763Z,20.16
2017-09-04T09:20:52.998Z,19.97
2017-09-04T09:21:52.727Z,20.06
2017-09-04T09:22:53.059Z,19.63
2017-09-04T09:23:52.896Z,20.09
2017-09-04T09:24:53.062Z,20.83
2017-09-04T09:25:53.320Z,21.32
2017-09-04T09:26:53.215Z,21.48
2017-09-04T09:27:53.111Z,20.20
2017-09-04T09:28:53.022Z,19.60
2017-09-04T09:29:53.135Z,19.11
2017-09-04T09:30:53.648Z,19.15
2017-09-04T09:31:53.395Z,19.33
2017-09-04T09:32:53.219Z,19.93
2017-09-04T09:33:53.408Z,20.34
2017-09-04T09:34:53.770Z,20.02
2017-09-04T09:35:53.588Z,20.30
2017-09-04T09:36:53.786Z,19.40
2017-09-04T09:37:53.856Z,19.36
2017-09-04T09:38:53.769Z,19.32
2017-09-04T09:39:54.042Z,19.75
2017-09-04T09:40:53.871Z,19.80
2017-09-04T09:41:54.228Z,19.33
2017-09-04T09:42:53.861Z,19.36
2017-09-04T09:43:53.830Z,19.40
2017-09-04T09:44:53.898Z,19.65
2017-09-04T09:45:54.217Z,19.24
2017-09-04T09:46:54.483Z,19.43
2017-09-04T09:47:54.458Z,19.69
2017-09-04T09:48:54.165Z,19.87
2017-09-04T09:49:54.148Z,19.97
2017-09-04T09:50:54.224Z,19.87
2017-09-04T09:51:54.572Z,19.86
2017-09-04T09:52:54.868Z,19.95
2017-09-04T09:53:54.766Z,19.98
2017-09-04T09:54:54.423Z,19.83
2017-09-04T09:55:54.623Z,20.13
2017-09-04T09:56:54.983Z,20.50
2017-09-04T09:57:54.601Z,20.49
2017-09-04T09:58:54.759Z,20.65
2017-09-04T09:59:54.793Z,20.93
2017-09-04T10:00:55.115Z,21.16
2017-09-04T10:01:55.255Z,21.38
2017-09-04T10:02:55.054Z,21.39
2017-09-04T10:03:55.151Z,20.93
2017-09-04T10:04:55.332Z,21.34
2017-09-04T10:05:55.263Z,20.79
2017-09-04T10:06:55.468Z,20.39
2017-09-04T10:07:55.368Z,20.15
2017-09-04T10:08:55.733Z,20.08
2017-09-04T10:09:55.262Z,20.62
2017-09-04T10:10:55.421Z,21.06
2017-09-04T10:11:55.607Z,21.21
2017-09-04T10:12:55.924Z,21.76
2017-09-04T10:13:56.073Z,22.04
2017-09-04T10:14:56.181Z,21.98
2017-09-04T10:15:56.225Z,21.83
2017-09-04T10:16:56.089Z,21.97
2017-09-04T10:17:55.812Z,21.92
2017-09-04T10:18:55.917Z,22.12
2017-09-04T10:19:56.143Z,22.41
2017-09-04T10:20:55.837Z,22.41
2017-09-04T10:21:56.082Z,21.29
2017-09-04T10:22:56.425Z,20.27
2017-09-04T10:23:56.002Z,19.65
2017-09-04T10:24:56.466Z,19.55
2017-09-04T10:25:56.342Z,19.63
2017-09-04T10:26:56.410Z,20.15
2017-09-04T10:27:56.353Z,20.71
2017-09-04T10:28:56.887Z,20.81
2017-09-04T10:29:56.443Z,20.50
2017-09-04T10:30:56.638Z,20.41
2017-09-04T10:31:56.515Z,20.49
2017-09-04T10:32:56.649Z,20.87
2017-09-04T10:33:57.111Z,20.62
2017-09-04T10:34:56.643Z,20.16
2017-09-04T10:35:56.666Z,19.57
2017-09-04T10:36:56.829Z,19.79
2017-09-04T10:37:56.926Z,19.90
2017-09-04T10:38:57.089Z,20.00
2017-09-04T10:39:57.082Z,20.24
2017-09-04T10:40:57.126Z,20.06
2017-09-04T10:41:57.045Z,20.41
2017-09-04T10:42:57.023Z,20.49
2017-09-04T10:43:57.612Z,20.53
2017-09-04T10:44:57.254Z,20.54
2017-09-04T10:45:57.183Z,19.94
2017-09-04T10:46:57.290Z,19.94
2017-09-04T10:47:57.372Z,20.08
2017-09-04T10:48:57.720Z,20.25
2017-09-04T10:49:58.130Z,19.68
2017-09-04T10:50:57.606Z,19.57
2017-09-04T10:51:57.605Z,20.03
2017-09-04T10:52:57.672Z,20.62
2017-09-04T10:53:58.005Z,20.83
2017-09-04T10:54:57.690Z,21.19
2017-09-04T10:55:57.849Z,21.35
2017-09-04T10:56:58.091Z,21.60
2017-09-04T10:57:57.868Z,21.79
2017-09-04T10:58:58.087Z,21.51
2017-09-04T10:59:57.984Z,21.76
2017-09-04T11:00:58.041Z,21.90
2017-09-04T11:01:58.045Z,22.04
2017-09-04T11:02:58.585Z,22.07
2017-09-04T11:03:58.381Z,21.83
2017-09-04T11:04:58.675Z,21.98
2017-09-04T11:05:58.401Z,21.24
2017-09-04T11:06:58.337Z,20.27
2017-09-04T11:07:59.045Z,19.79
2017-09-04T11:08:58.676Z,19.78
2017-09-04T11:09:58.589Z,20.06
2017-09-04T11:10:58.696Z,19.90
2017-09-04T11:11:58.746Z,20.30
2017-09-04T11:12:58.685Z,20.58
2017-09-04T11:13:58.836Z,20.87
2017-09-04T11:14:59.149Z,21.19
2017-09-04T11:15:59.263Z,21.11
2017-09-04T11:16:58.976Z,21.64
2017-09-04T11:17:59.154Z,22.10
2017-09-04T11:18:59.026Z,22.47
2017-09-04T11:19:59.697Z,22.28
2017-09-04T11:20:59.150Z,21.99
2017-09-04T11:21:59.401Z,21.08
2017-09-04T11:22:59.513Z,20.25
2017-09-04T11:23:59.725Z,19.48
2017-09-04T11:24:59.884Z,19.38
2017-09-04T11:25:59.844Z,19.63
2017-09-04T11:26:59.720Z,19.76
2017-09-04T11:27:59.536Z,19.68
2017-09-04T11:28:59.901Z,20.05
2017-09-04T11:30:00.159Z,20.34
2017-09-04T11:30:59.678Z,19.88
2017-09-04T11:31:59.719Z,19.61
2017-09-04T11:32:59.819Z,19.78
2017-09-04T11:33:59.958Z,19.60
2017-09-04T11:35:00.211Z,19.65
2017-09-04T11:36:00.228Z,19.33
2017-09-04T11:37:00.054Z,19.36
2017-09-04T11:38:00.575Z,19.28
2017-09-04T11:39:00.333Z,19.25
2017-09-04T11:40:00.970Z,19.50
2017-09-04T11:41:00.601Z,19.91
2017-09-04T11:42:00.703Z,20.18
2017-09-04T11:43:00.567Z,20.50
2017-09-04T11:44:00.620Z,20.64
2017-09-04T11:45:00.617Z,20.51
2017-09-04T11:46:00.901Z,20.30
2017-09-04T11:47:00.739Z,20.43
2017-09-04T11:48:01.201Z,20.65
2017-09-04T11:49:00.823Z,20.62
2017-09-04T11:50:00.722Z,20.28
2017-09-04T11:51:01.532Z,20.15
2017-09-04T11:52:01.160Z,20.38
2017-09-04T11:53:01.294Z,20.68
2017-09-04T11:54:01.019Z,21.09
2017-09-04T11:55:01.217Z,21.17
2017-09-04T11:56:01.371Z,20.61
2017-09-04T11:57:01.763Z,20.90
2017-09-04T11:58:01.176Z,21.27
2017-09-04T11:59:01.522Z,21.79
2017-09-04T12:00:01.319Z,22.39
2017-09-04T12:01:01.838Z,22.60
2017-09-04T12:02:01.360Z,22.34
2017-09-04T12:03:01.659Z,22.68
2017-09-04T12:04:01.913Z,22.32
2017-09-04T12:05:02.105Z,22.04
2017-09-04T12:06:01.727Z,21.71
2017-09-04T12:07:01.866Z,21.30
2017-09-04T12:08:02.130Z,21.42
2017-09-04T12:09:02.203Z,20.91
2017-09-04T12:10:02.067Z,20.33
2017-09-04T12:11:02.203Z,19.68
2017-09-04T12:12:02.480Z,19.75
2017-09-04T12:13:02.103Z,19.51
2017-09-04T12:14:02.127Z,19.54
2017-09-04T12:15:02.158Z,19.75
2017-09-04T12:16:02.189Z,19.98
2017-09-04T12:17:02.566Z,20.62
2017-09-04T12:18:02.265Z,21.38
2017-09-04T12:19:02.878Z,21.95
2017-09-04T12:20:02.929Z,22.32
2017-09-04T12:21:02.593Z,22.59
2017-09-04T12:22:02.894Z,22.28
2017-09-04T12:23:02.965Z,21.82
2017-09-04T12:24:02.592Z,21.90
2017-09-04T12:25:03.042Z,21.72
2017-09-04T12:26:02.968Z,21.51
2017-09-04T12:27:03.401Z,21.45
2017-09-04T12:28:02.886Z,21.66
2017-09-04T12:29:03.048Z,21.69
2017-09-04T12:30:03.169Z,21.82
2017-09-04T12:31:03.150Z,22.06
2017-09-04T12:32:03.554Z,22.17
2017-09-04T12:33:03.370Z,22.02
2017-09-04T12:34:03.518Z,22.14
2017-09-04T12:35:03.298Z,22.27
2017-09-04T12:36:03.459Z,22.37
2017-09-04T12:37:03.670Z,22.37
2017-09-04T12:38:03.456Z,22.39
2017-09-04T12:39:03.545Z,22.44
2017-09-04T12:40:03.537Z,22.53
2017-09-04T12:41:03.662Z,22.65
2017-09-04T12:42:04.079Z,22.27
2017-09-04T12:43:03.674Z,21.39
2017-09-04T12:44:03.762Z,21.05
2017-09-04T12:45:04.311Z,20.84
2017-09-04T12:46:04.178Z,20.81
2017-09-04T12:47:04.198Z,20.87
2017-09-04T12:48:04.530Z,20.89
2017-09-04T12:49:04.026Z,21.13
2017-09-04T12:50:04.825Z,21.19
2017-09-04T12:51:04.116Z,21.30
2017-09-04T12:52:04.170Z,21.39
2017-09-04T12:53:04.694Z,20.87
2017-09-04T12:54:04.329Z,20.84
2017-09-04T12:55:04.391Z,20.91
2017-09-04T12:56:04.471Z,21.16
2017-09-04T12:57:04.754Z,21.46